Logo AVAMET
Benvolgut visitant, si us plau, ingressa Recuperar contrasenya

Inforatge Gilet

Dades diàries. Acumulats / Últims 30 dies disponibles

Data Temperatura (°C) Humitat rel. (%) Pressió rel. (hPa) Vent (km/h) Precipitació
Mínima Mitjana Màxima Amplitud
tèrmica
Mínima Mitjana Màxima Mínima Mitjana Màxima Predom. Mitjana Ràfega
màxima
Total
(mm)
Índex-n
Mínima Mitjana Màxima Mínima Mitjana Màxima n
0 a 1
P0 max
mm 5'
Dades mensuals acumulades fins l'últim dia disponible
05/2019 8,3 13,0 17,9 17,6 18,4 22,4 32,7 24,4 24 67 91 1.007 1.020 1.030   4,8 51,9 21,8
Dades anuals acumulades fins l'últim dia disponible
2019 1,2 8,4 17,9 13,4 9,1 18,9 32,7 31,5 17 63 96 996 1.024 1.041   5,3 69,3 116,8
Últims 30 dies disponibles
24-05-2019 15,6     17,0     19,1 3,5 76 84 90 1.019 1.021 1.022 S 2,3 19,3 10,2 0,26 0,60
23-05-2019 13,3     19,2     24,2 10,9 55 71 88 1.020 1.022 1.024 S 4,1 27,8 0,0
22-05-2019 11,8     17,5     22,3 10,5 59 75 89 1.022 1.024 1.025 S 3,9 24,1 0,0
21-05-2019 13,3     16,7     21,8 8,5 65 76 89 1.020 1.021 1.023 SO 4,1 29,6 5,8 0,45 1,30
20-05-2019 13,9     17,9     21,5 7,6 41 58 78 1.017 1.018 1.020 S 5,0 27,8 0,0
19-05-2019 10,8     16,8     24,0 13,2 29 58 79 1.014 1.016 1.018 SO 4,7 35,4 1,2
18-05-2019 12,7     16,2     19,4 6,7 46 59 80 1.014 1.015 1.017 SSO 3,6 27,8 0,0
17-05-2019 13,9     18,7     23,1 9,2 34 55 83 1.007 1.011 1.015 OSO 7,2 43,5 0,0
16-05-2019 15,8     17,9     21,1 5,3 59 73 82 1.011 1.017 1.022 ESE 3,8 24,1 0,0
15-05-2019 12,4     17,2     21,4 9,0 65 74 82 1.017 1.018 1.022 SSE 7,9 40,7 0,0
14-05-2019 11,4     17,9     23,7 12,3 37 64 84 1.020 1.024 1.028 SSO 4,3 31,5 0,0
13-05-2019 13,1     17,7     22,8 9,7 40 69 88 1.025 1.026 1.028 S 4,5 27,8 0,0
12-05-2019 14,0     18,4     22,3 8,3 32 59 84 1.025 1.028 1.030 S 3,6 25,9 0,0
11-05-2019 15,1     19,7     23,6 8,5 56 72 87 1.020 1.024 1.030 SE 5,1 29,6 0,0
10-05-2019 17,9     24,7     32,7 14,8 30 55 76 1.016 1.018 1.020 SO 6,9 35,4 0,0
09-05-2019 17,8     22,4     29,6 11,8 29 49 78 1.015 1.017 1.019 SO 7,4 40,7 0,0
08-05-2019 14,9     21,2     27,7 12,8 40 63 90 1.014 1.017 1.021 SO 6,3 51,9 0,0
07-05-2019 10,5     15,9     20,6 10,1 69 78 87 1.020 1.022 1.025 S 3,8 20,9 0,0
06-05-2019 8,3     14,0     18,4 10,1 45 70 85 1.023 1.024 1.026 S 4,7 24,1 0,0
05-05-2019 11,4     15,8     19,2 7,8 24 53 82 1.018 1.021 1.023 SSO 7,5 46,7 0,0
04-05-2019 10,0     14,9     19,8 9,8 47 64 90 1.017 1.018 1.019 SSO 5,2 29,6 0,0
03-05-2019 10,1     13,6     18,8 8,7 57 79 87 1.017 1.018 1.021 SSO 4,6 25,9 0,2
02-05-2019 12,9     16,0     19,9 7,0 59 81 91 1.020 1.021 1.022 S 2,7 19,3 1,4
01-05-2019 11,2     15,1     19,6 8,4 42 81 91 1.019 1.021 1.023 SSO 3,1 29,6 3,0 0,20
30-04-2019 10,3     15,2     19,9 9,6 68 80 90 1.022 1.023 1.025 S 3,3 22,6 0,0
29-04-2019 9,8     14,5     18,9 9,1 68 79 87 1.023 1.025 1.027 S 3,4 24,1 0,0
28-04-2019 11,1     15,4     20,3 9,2 54 69 86 1.026 1.028 1.031 S 5,0 25,9 0,0
27-04-2019 11,3     16,3     21,1 9,8 37 58 75 1.029 1.031 1.032 SSO 5,3 29,6 0,0
26-04-2019 9,3     16,2     22,1 12,8 32 52 71 1.023 1.027 1.031 SSO 5,6 37,0 0,0
25-04-2019 12,9     17,3     21,4 8,5 35 57 80 1.014 1.017 1.023 OSO 8,8 53,7 0,0
Últims 13 mesos disponibles
04/2019 7,2 10,6 14,1 14,9 15,3 19,7 29,8 22,6 42 64 93 1.005 1.018 1.031 SSO 6,8 66,7 61,6
03/2019 4,6 8,0 12,6 13,7 12,1 19,6 28,2 23,6 40 59 86 1.016 1.028 1.035 SSO 4,6 56,3 33,4
02/2019 1,6 5,5 10,8 10,8 10,7 17,1 26,2 24,6 34 64 86 998 1.029 1.039 SO 5,2 68,5 0,0
01/2019 1,2 5,3 11,6 10,4 9,1 16,1 20,9 19,7 37 60 85 1.005 1.024 1.035 SO 5,0 69,3 0,0
12/2018 3,6 7,8 12,3 12,5 14,4 18,2 24,8 21,2 41 70 88 1.013 1.030 1.035 OSO 3,9 66,7 8,0
11/2018 5,2 10,7 15,0 14,0 11,9 17,9 24,0 18,8 46 73 93 1.007 1.020 1.029 OSO 4,7 64,8 103,0
10/2018 8,1 13,9 17,1 17,9 13,8 22,5 28,2 20,1 41 72 91 1.004 1.020 1.031 SO 4,3 46,7 157,4
09/2018 15,5 19,6 22,4 23,3 23,1 27,8 31,9 16,4 57 77 86 1.018 1.025 1.034 3,9 37,0 62,4
08/2018 19,1 22,1 25,2 26,4 27,3 30,8 36,6 17,5 49 68 80 1.018 1.022 1.027 4,4 42,6 16,8
Tots els anys disponibles
Temperatura (°C)
Humitat relativa (%)
Velocitat del vent i ràfega màxima (km/h)
Direcció del vent (°)
Pressió (hPa)
Precipitació (mm)
Nota sobre les dades: s'avisa a l'usuari de la provisionalitat i no oficialitat d'aquestes dades
Logo AVAMET blanc
Web allotjada a Sollutia
Llicència de Creative CommonsLa web d'AVAMET i els seus continguts estan subjectes a una llicència de
Reconeixement - No Comercial - Compartir igual
Properes estacions: Altea - Club Nàutic d'Altea (Soci), Ontinyent - El Pilar (Soci), Ares del Maestrat (Ajuntament Soci), Catadau - L'Altet (Inforatge)     - - - - -      Últimes estacions: Asp - Poliesportiu (Soci), Jacarilla - centro (MeteOrihuela), Elx - Maitino/Vallverda/Velarde/Matola/Ferriol (Soci TiempoElche.com), Orihuela - Playa Flamenca (MeteOrihuela), - - -